Meteo Giornale » Osservazioni meteo Egitto » Asswan
ore: 03:00 - Osservazioni Meteo Asswan
Lat. 23° 58' N Lon. 32° 47' E Alt. 200 metri s.l.m.
29 °C
Sereno
Temp. 24 Ore
26 °C
39 °C
Nord-Ovest
7.4 Km/h
Dew point 10 °C
Umidità 30 %
Visibilità 10 Km
Il sole sorge alle ore 06:30
Il sole tramonta alle ore 19:07
| Data e Ora | Cielo e Fenomeni | T °C | DP °C | Um. % | Pres. hPa | Vis. km | Vento km/h | |
|---|---|---|---|---|---|---|---|---|
| Oggi h: 03:00 | Sereno | 29 | 10 | 30 | 1009 | 10 | NO 7.4 | |
| Oggi h: 02:00 | Sereno | 29 | 9 | 28 | 1009 | 10 | NO 7.4 | |
| Oggi h: 01:00 | Sereno | 30 | 9 | 27 | 1009 | 10 | O/NO 7.4 | |
| Oggi h: 00:00 | Sereno | 31 | 9 | 25 | 1009 | 10 | O/NO 7.4 | |
| Ieri h: 23:00 | Sereno | 32 | 9 | 24 | 1008 | 10 | N 9.3 | |
| Ieri h: 22:00 | Sereno | 33 | 9 | 22 | 1008 | 10 | N 7.4 | |
| Ieri h: 21:00 | Sereno | 34 | 9 | 21 | 1008 | 10 | N/NE 7.4 | |
| Ieri h: 20:00 | Sereno | 35 | 6 | 16 | 1007 | 10 | N/NO 11.1 | |
| Ieri h: 19:00 | Sereno | 37 | 7 | 15 | 1007 | 10 | N/NO 11.1 | |
| Ieri h: 18:00 | Sereno | 38 | 7 | 15 | 1006 | 10 | O 9.3 | |
| Ieri h: 17:00 | Sereno | 39 | 7 | 14 | 1007 | 10 | N/NO 9.3 | |
| Ieri h: 16:00 | Sereno | 39 | 7 | 14 | 1007 | 10 | N/NO 9.3 | |
| Ieri h: 15:00 | Sereno | 38 | 8 | 16 | 1008 | 10 | N/NO 11.1 | |
| Ieri h: 14:00 | Sereno | 37 | 8 | 17 | 1008 | 10 | N 9.3 | |
| Ieri h: 13:00 | Sereno | 36 | 9 | 19 | 1009 | 10 | N 7.4 | |
| Ieri h: 12:00 | Sereno | 35 | 9 | 20 | 1010 | 10 | N 7.4 | |
| Ieri h: 11:00 | Sereno | 34 | 11 | 24 | 1010 | 10 | N 13 | |
| Ieri h: 10:00 | Sereno | 32 | 12 | 29 | 0 | 10 | N 11.1 | |
| Ieri h: 09:00 | Sereno | 30 | 12 | 33 | 1010 | 10 | N 9.3 | |
| Ieri h: 08:00 | Sereno | 28 | 12 | 37 | 1010 | 10 | O/NO 7.4 | |
| Ieri h: 07:00 | Sereno | 26 | 12 | 41 | 1009 | 10 | N 5.5 | |
| Ieri h: 06:00 | Sereno | 27 | 13 | 42 | 1009 | 10 | NO 9.3 | |
| Ieri h: 05:00 | Sereno | 28 | 9 | 30 | 1009 | 10 | NO 9.3 | |
| Ieri h: 04:00 | Sereno | 28 | 9 | 30 | 1009 | 10 | NO 7.4 | |



